ADDS METAR Data INFO
IDs: Format: Raw Decoded Include TAF

Data at: 0248 UTC 21 Oct 2017

KBUR 210153Z 13005KT 10SM SCT046 BKN055 20/12 A2990 RMK AO2 SLP113 T02000122
KBUR 210053Z 16007KT 10SM BKN055 20/12 A2988 RMK AO2 SLP108 T02000122
KBUR 202353Z 18006KT 10SM BKN060 21/12 A2987 RMK AO2 SLP105 T02110117 10228 20200 55003
KBUR 202253Z 18007KT 10SM BKN055 22/11 A2987 RMK AO2 SLP104 T02170111
KBUR 202153Z 16008KT 10SM BKN055 22/12 A2987 RMK AO2 SLP103 T02220117
KBUR 202053Z VRB04KT 10SM FEW055 22/12 A2988 RMK AO2 SLP108 T02220122 58016
KBUR 201953Z 15008KT 10SM FEW034 BKN047 22/12 A2990 RMK AO2 SLP113 T02170122
KBUR 201853Z 24004KT 10SM FEW048 22/12 A2993 RMK AO2 SLP123 T02170117
KBUR 201753Z VRB04KT 10SM CLR 20/13 A2993 RMK AO2 SLP126 T02000128 10200 20172 50005
KBUR 201716Z 00000KT 10SM SCT019 19/13 A2994 RMK AO2 T01940128
KBUR 201653Z VRB03KT 10SM BKN017 18/13 A2994 RMK AO2 SLP129 T01830128
KBUR 201553Z 24004KT 10SM BKN017 BKN026 17/12 A2993 RMK AO2 SLP123 T01720122
KBUR 201453Z 25005KT 10SM BKN016 BKN022 17/12 A2992 RMK AO2 SLP120 T01720122 50006
KBUR 201429Z 25005KT 10SM BKN014 BKN025 17/13 A2991 RMK AO2 T01720133
KBUR 201353Z 31003KT 10SM BKN016 OVC026 17/14 A2992 RMK AO2 SLP121 T01720139
KBUR 201312Z 27004KT 10SM SCT013 BKN017 OVC041 17/14 A2992 RMK AO2 T01720144
KBUR 201253Z 25004KT 10SM BKN013 OVC018 17/14 A2991 RMK AO2 SLP119 T01720139
KBUR 201208Z 00000KT 10SM BKN013 BKN026 OVC033 17/14 A2991 RMK AO2 T01720144
KBUR 201153Z 17004KT 10SM OVC032 17/14 A2990 RMK AO2 SLP112 T01720144 10178 20172 55006
KBUR 201053Z 16005KT 10SM BKN021 OVC026 17/14 A2989 RMK AO2 SLP111 T01720144
KBUR 200953Z 14006KT 10SM BKN024 BKN029 17/14 A2990 RMK AO2 SLP115 T01720144
KBUR 200853Z AUTO 14006KT 9SM OVC020 17/14 A2992 RMK AO2 SLP118 T01720144 51002
KBUR 200753Z AUTO 13007KT 7SM OVC019 17/14 A2991 RMK AO2 SLP115 T01720144 402610156
KBUR 200740Z 16005KT 7SM BKN019 17/14 A2992 RMK AO2 T01720144
KBUR 200653Z 12004KT 10SM FEW021 18/13 A2993 RMK AO2 SLP122 T01780133
KBUR 200553Z 16007KT 10SM CLR 18/13 A2991 RMK AO2 SLP116 T01780133 10222 20178 51009
KBUR 200453Z 18004KT 10SM FEW023 18/13 A2991 RMK AO2 SLP117 T01780133
KBUR 200353Z 16005KT 10SM CLR 18/13 A2989 RMK AO2 SLP112 T01830133
KBUR 200253Z 15006KT 10SM CLR 18/13 A2988 RMK AO2 SLP108 T01830133 53007
KBUR 200153Z 18008KT 6SM HZ CLR 19/14 A2986 RMK AO2 SLP102 T01940139
KBUR 200053Z 17010KT 6SM HZ CLR 21/14 A2985 RMK AO2 SLP098 T02060139
KBUR 192353Z 18009KT 6SM HZ CLR 22/14 A2986 RMK AO2 SLP099 T02220139 10261 20217 50000
KBUR 192253Z 18010KT 6SM HZ CLR 23/14 A2987 RMK AO2 SLP102 T02330144
KBUR 192153Z 19009KT 10SM CLR 24/14 A2985 RMK AO2 SLP097 T02390144
KBUR 192053Z 14006KT 6SM HZ CLR 26/12 A2986 RMK AO2 SLP098 T02610122 58023
KBUR 191953Z 00000KT 6SM HZ CLR 24/12 A2989 RMK AO2 SLP109 T02440117
KBUR 191853Z 00000KT 9SM CLR 23/13 A2992 RMK AO2 SLP120 T02330128
KBUR 191753Z 00000KT 6SM HZ CLR 22/13 A2993 RMK AO2 SLP122 T02170128 10217 20156 50001
KBUR 191653Z 00000KT 6SM HZ CLR 20/14 A2993 RMK AO2 SLP125 T02000139
KBUR 191553Z 00000KT 8SM SCT014 18/14 A2994 RMK AO2 SLP125 T01830139
KBUR 191531Z 00000KT 6SM HZ BKN013 18/14 A2993 RMK AO2 T01830139
KBUR 191453Z 15003KT 6SM HZ SCT010 17/13 A2992 RMK AO2 SLP121 T01720128 53008